Terminal Aerodrome Forecast
Issued by NWS Grand Forks, ND

Home | Current Version | Previous Version | Text Only | Print | Product List | Glossary Off
Versions: 1 2 3 4 5 6 7 8 9 10 11 12 13 14 15

976
FTUS43 KFGF 271401 AAA
TAFGFK
TAF AMD
KGFK 271401Z 2714/2812 08014G20KT P6SM BKN250
     FM271600 07017KT P6SM SCT250
     FM280600 08007KT P6SM BKN250=

USA.gov is the U.S. government's official web portal to all federal, state and local government web resources and services.